• Join FlightAware (Why Join?)
  • Login
  • US Flag 
07:26PM EDT


 

Airport Tracker/Info


-or-


 

Live Flight TrackerFlight Track Log ✈ N904ER ✈ 12-Jul-2013 ✈ KDAB - KFPR

Flight Track Log - Related Links

Times and Time Zones

All times are in EDT time to prevent confusion due to time zone crossing. See the N904ER flight status page for this flight to view local times or setup timezone preferences in your user account.

Time Position Orientation Groundspeed Altitude Reporting Facility
EDT Latitude Longitude Course Direction KTS MPH feet Rate Location/Type
01:04PM 28.8833 -80.9000 164° South 126 145 2,000  Level Orlando TRACON
01:05PM 28.8333 -80.8833 164° South 129 148 2,000  Level Orlando TRACON
01:06PM 28.8000 -80.8833 180° South 124 143 2,000 240 Level Orlando TRACON
01:07PM 28.7667 -80.8667 156° South 132 152 2,500 420 Climbing Orlando TRACON
01:08PM 28.7333 -80.8667 180° South 133 153 2,900 180 Climbing Orlando TRACON
01:09PM 28.7000 -80.8500 156° South 131 151 3,000  Climbing Orlando TRACON
01:10PM 28.6667 -80.8500 180° South 131 151 3,000  Level Orlando TRACON
01:11PM 28.6333 -80.8333 156° South 125 144 3,000  Level Orlando TRACON
01:12PM 28.6000 -80.8333 180° South 129 148 3,000  Level Orlando TRACON
01:13PM 28.5667 -80.8167 156° South 129 148 3,000  Level Orlando TRACON
01:14PM 28.5333 -80.8000 156° South 127 146 3,100 180 Climbing Orlando TRACON
01:15PM 28.5000 -80.7833 156° South 128 147 3,400 180 Climbing Orlando TRACON
01:16PM 28.4667 -80.7833 180° South 134 154 3,500  Climbing Orlando TRACON
01:17PM 28.4167 -80.7667 164° South 135 155 3,500 -60 Level Orlando TRACON
01:18PM 28.3833 -80.7500 156° South 133 153 3,400  Descending Orlando TRACON
01:19PM 28.3500 -80.7333 156° South 132 152 3,500  Climbing Orlando TRACON
01:19PM 28.3167 -80.7167 156° South 135 155 3,500  Level Orlando TRACON
01:20PM 28.2833 -80.7167 180° South 136 157 3,500  Level Orlando TRACON
01:22PM 28.2500 -80.7000 156° South 140 161 3,500  Level Orlando TRACON
01:23PM 28.2000 -80.6833 164° South 137 158 3,500 -120 Level Orlando TRACON
01:24PM 28.1667 -80.6667 156° South 136 157 3,300 -240 Descending Orlando TRACON
01:25PM 28.1333 -80.6500 156° South 139 160 3,100 -180 Descending Orlando TRACON
01:26PM 28.1000 -80.6333 156° South 132 152 3,000 -120 Descending Orlando TRACON
01:27PM 28.0367 -80.6158 166° South 133 153 2,900 -60 Descending Miami Center
01:28PM 28.0058 -80.5936 148° Southeast 128 147 2,900 -240 Level Miami Center
01:29PM 27.9750 -80.5786 157° South 133 153 2,500 -240 Descending Miami Center
01:30PM 27.9378 -80.5656 163° South 138 159 2,500  Level Miami Center
01:31PM 27.9092 -80.5364 138° Southeast 128 147 2,500  Level Miami Center
01:32PM 27.8850 -80.5050 131° Southeast 128 147 2,500  Level Miami Center
01:33PM 27.8500 -80.4828 151° Southeast 128 147 2,500  Level Miami Center
01:34PM 27.8211 -80.4656 152° Southeast 128 147 2,500  Level Miami Center
01:35PM 27.7861 -80.4525 162° South 128 147 2,500  Level Miami Center
01:36PM 27.7467 -80.4397 164° South 128 147 2,600  Climbing Miami Center
01:37PM 27.7114 -80.4361 175° South 128 147 2,600  Level Miami Center
01:38PM 27.6761 -80.4258 166° South 128 147 2,600  Level Miami Center
01:39PM 27.6447 -80.4272 182° South 123 142 2,600 -60 Level Miami Center
01:40PM 27.6094 -80.4167 165° South 123 142 2,500 -120 Descending Miami Center